createdAt,value
2023-03-24T00:00:23.851Z,12.00
2023-03-24T00:02:52.116Z,12.00
2023-03-24T00:05:22.195Z,12.00
2023-03-24T00:07:54.746Z,12.00
2023-03-24T00:10:23.244Z,12.10
2023-03-24T00:12:51.545Z,12.00
2023-03-24T00:15:21.696Z,12.10
2023-03-24T00:17:52.342Z,12.10
2023-03-24T00:20:22.023Z,12.10
2023-03-24T00:22:56.661Z,12.10
2023-03-24T00:25:28.620Z,12.10
2023-03-24T00:27:57.305Z,12.10
2023-03-24T00:30:25.182Z,12.10
2023-03-24T00:32:52.636Z,12.10
2023-03-24T00:35:20.322Z,12.10
2023-03-24T00:37:47.704Z,12.10
2023-03-24T00:40:17.245Z,12.20
2023-03-24T00:42:45.809Z,12.20
2023-03-24T00:45:18.026Z,12.20
2023-03-24T00:47:45.011Z,12.30
2023-03-24T00:50:18.283Z,12.30
2023-03-24T00:52:47.983Z,12.20
2023-03-24T00:55:16.628Z,12.30
2023-03-24T00:57:50.599Z,12.20
2023-03-24T01:00:24.905Z,12.20
2023-03-24T01:02:56.541Z,12.30
2023-03-24T01:05:29.715Z,12.30
2023-03-24T01:08:03.116Z,12.30
2023-03-24T01:10:31.857Z,12.30
2023-03-24T01:13:00.063Z,12.20
2023-03-24T01:15:33.539Z,12.20
2023-03-24T01:18:03.593Z,12.20
2023-03-24T01:20:35.480Z,12.20
2023-03-24T01:23:07.603Z,12.20
2023-03-24T01:25:36.962Z,12.20
2023-03-24T01:28:04.689Z,12.20
2023-03-24T01:30:32.084Z,12.20
2023-03-24T01:32:58.894Z,12.20
2023-03-24T01:35:28.944Z,12.20
2023-03-24T01:37:55.910Z,12.20
2023-03-24T01:40:26.489Z,12.20
2023-03-24T01:42:53.195Z,12.20
2023-03-24T01:45:41.996Z,12.30
2023-03-24T01:48:36.787Z,12.30
2023-03-24T01:51:21.326Z,12.40
2023-03-24T01:54:03.137Z,12.30
2023-03-24T01:56:34.082Z,12.40
2023-03-24T01:59:09.425Z,12.40
2023-03-24T02:01:36.252Z,12.40
2023-03-24T02:04:06.735Z,12.50
2023-03-24T02:06:40.933Z,12.40
2023-03-24T02:09:09.298Z,12.50
2023-03-24T02:11:37.784Z,12.50
2023-03-24T02:14:07.082Z,12.60
2023-03-24T02:16:46.398Z,12.60
2023-03-24T02:19:42.101Z,12.60
2023-03-24T02:22:24.279Z,12.60
2023-03-24T02:25:22.131Z,12.60
2023-03-24T02:28:00.720Z,12.60
2023-03-24T02:30:45.729Z,12.70
2023-03-24T02:33:27.373Z,12.70
2023-03-24T02:36:44.758Z,12.60
2023-03-24T02:39:26.536Z,12.60
2023-03-24T02:42:16.089Z,12.60
2023-03-24T02:45:33.341Z,12.60
2023-03-24T02:48:34.242Z,12.50
2023-03-24T02:51:20.290Z,12.60
2023-03-24T02:53:59.281Z,12.60
2023-03-24T02:56:37.756Z,12.60
2023-03-24T02:59:10.000Z,12.60
2023-03-24T03:01:44.842Z,12.60
2023-03-24T03:04:16.937Z,12.70
2023-03-24T03:06:52.470Z,12.70
2023-03-24T03:09:21.488Z,12.70
2023-03-24T03:11:52.557Z,12.70
2023-03-24T03:14:29.306Z,12.70
2023-03-24T03:17:16.096Z,12.70
2023-03-24T03:19:50.373Z,12.70
2023-03-24T03:22:22.434Z,12.80
2023-03-24T03:24:54.646Z,12.80
2023-03-24T03:27:27.083Z,12.80
2023-03-24T03:30:04.881Z,12.80
2023-03-24T03:32:35.366Z,12.80
2023-03-24T03:35:24.344Z,12.90
2023-03-24T03:38:09.010Z,12.90
2023-03-24T03:40:41.391Z,13.00
2023-03-24T03:43:08.120Z,13.00
2023-03-24T03:45:35.581Z,13.00
2023-03-24T03:48:02.818Z,13.00
2023-03-24T03:50:29.953Z,13.10
2023-03-24T03:52:57.750Z,13.10
2023-03-24T03:55:24.812Z,13.10
2023-03-24T03:57:52.214Z,13.10
2023-03-24T04:00:24.698Z,13.10
2023-03-24T04:03:27.218Z,13.10
2023-03-24T04:06:28.080Z,13.00
2023-03-24T04:09:06.143Z,13.00
2023-03-24T04:11:39.471Z,13.10
2023-03-24T04:14:12.774Z,13.00
2023-03-24T04:16:54.972Z,13.00
2023-03-24T04:19:42.909Z,12.90
2023-03-24T04:22:40.962Z,12.90
2023-03-24T04:25:15.686Z,12.90
2023-03-24T04:28:14.683Z,12.90
2023-03-24T04:30:51.180Z,12.90
2023-03-24T04:33:43.320Z,12.90
2023-03-24T04:36:19.359Z,12.90
2023-03-24T04:38:51.039Z,12.90
2023-03-24T04:41:20.494Z,12.90
2023-03-24T04:43:48.771Z,12.80
2023-03-24T04:46:19.554Z,12.70
2023-03-24T04:48:48.240Z,12.60
2023-03-24T04:51:17.807Z,12.60
2023-03-24T04:53:48.071Z,12.50
2023-03-24T04:56:54.202Z,12.30
2023-03-24T04:59:21.366Z,12.10
2023-03-24T05:01:51.861Z,12.00
2023-03-24T05:04:22.344Z,11.80
2023-03-24T05:06:51.987Z,11.70
2023-03-24T05:09:24.210Z,11.70
2023-03-24T05:11:51.773Z,11.50
2023-03-24T05:14:19.159Z,11.50
2023-03-24T05:16:46.060Z,11.40
2023-03-24T05:19:13.184Z,11.30
2023-03-24T05:21:40.307Z,11.20
2023-03-24T05:24:08.221Z,11.10
2023-03-24T05:26:35.441Z,11.10
2023-03-24T05:29:02.444Z,11.10
2023-03-24T05:31:29.324Z,11.10
2023-03-24T05:33:56.738Z,11.10
2023-03-24T05:36:23.773Z,11.20
2023-03-24T05:38:51.835Z,11.20
2023-03-24T05:41:18.980Z,11.20
2023-03-24T05:43:45.872Z,11.20
2023-03-24T05:46:13.399Z,11.20
2023-03-24T05:48:40.476Z,11.20
2023-03-24T05:51:07.732Z,11.20
2023-03-24T05:53:34.656Z,11.20
2023-03-24T05:56:01.517Z,11.10
2023-03-24T05:58:28.660Z,11.10
2023-03-24T06:00:57.153Z,11.00
2023-03-24T06:03:24.316Z,11.00
2023-03-24T06:05:52.706Z,11.00
2023-03-24T06:08:19.801Z,11.00
2023-03-24T06:10:46.727Z,11.00
2023-03-24T06:13:13.977Z,11.00
2023-03-24T06:15:43.024Z,10.90
2023-03-24T06:18:10.273Z,10.90
2023-03-24T06:20:37.217Z,10.90
2023-03-24T06:23:04.243Z,10.90
2023-03-24T06:25:31.221Z,10.90
2023-03-24T06:28:04.022Z,10.90
2023-03-24T06:30:31.087Z,10.90
2023-03-24T06:32:58.476Z,10.90
2023-03-24T06:35:25.775Z,10.90
2023-03-24T06:37:52.941Z,11.00
2023-03-24T06:40:20.011Z,11.00
2023-03-24T06:42:46.959Z,11.10
2023-03-24T06:45:13.967Z,11.10
2023-03-24T06:47:41.091Z,11.10
2023-03-24T06:50:08.306Z,11.10
2023-03-24T06:52:36.001Z,11.20
2023-03-24T06:55:03.666Z,11.30
2023-03-24T06:57:30.815Z,11.30
2023-03-24T06:59:57.992Z,11.40
2023-03-24T07:02:25.218Z,11.40
2023-03-24T07:04:54.163Z,11.50
2023-03-24T07:07:57.041Z,11.50
2023-03-24T07:10:10.689Z,11.60
2023-03-24T07:12:37.586Z,11.80
2023-03-24T07:15:04.919Z,11.90
2023-03-24T07:17:31.995Z,12.00
2023-03-24T07:19:59.111Z,12.10
2023-03-24T07:22:26.082Z,12.20
2023-03-24T07:24:54.356Z,12.30
2023-03-24T07:27:21.456Z,12.50
2023-03-24T07:29:48.344Z,12.50
2023-03-24T07:32:15.540Z,12.50
2023-03-24T07:34:44.022Z,12.60
2023-03-24T07:37:11.515Z,12.60
2023-03-24T07:39:38.395Z,12.60
2023-03-24T07:42:06.322Z,12.60
2023-03-24T07:44:33.294Z,12.60
2023-03-24T07:47:00.410Z,12.60
2023-03-24T07:49:27.752Z,12.50
2023-03-24T07:51:54.737Z,12.50
2023-03-24T07:54:21.759Z,12.60
2023-03-24T07:56:48.732Z,12.60
2023-03-24T07:59:16.188Z,12.70
2023-03-24T08:01:44.465Z,12.70
2023-03-24T08:04:14.408Z,12.80
2023-03-24T08:06:43.525Z,12.80
2023-03-24T08:09:11.913Z,12.90
2023-03-24T08:11:39.377Z,13.00
2023-03-24T08:14:06.812Z,13.10
2023-03-24T08:16:33.780Z,13.20
2023-03-24T08:19:00.800Z,13.30
2023-03-24T08:21:27.776Z,13.40
2023-03-24T08:23:54.696Z,13.40
2023-03-24T08:26:22.697Z,13.40
2023-03-24T08:28:49.813Z,13.30
2023-03-24T08:31:17.194Z,13.30
2023-03-24T08:33:44.054Z,13.30
2023-03-24T08:36:11.098Z,13.30
2023-03-24T08:38:39.035Z,13.30
2023-03-24T08:41:07.200Z,13.50
2023-03-24T08:43:36.659Z,13.70
2023-03-24T08:46:06.864Z,13.90
2023-03-24T08:48:34.845Z,14.00
2023-03-24T08:51:09.345Z,14.00
2023-03-24T08:53:36.215Z,14.10
2023-03-24T08:56:03.152Z,14.00
2023-03-24T08:58:30.612Z,14.10
2023-03-24T09:00:57.482Z,14.20
2023-03-24T09:03:24.732Z,14.30
2023-03-24T09:05:55.013Z,14.30
2023-03-24T09:08:21.978Z,14.20
2023-03-24T09:10:49.732Z,14.20
2023-03-24T09:13:17.409Z,14.20
2023-03-24T09:15:49.987Z,14.20
2023-03-24T09:18:18.505Z,14.00
2023-03-24T09:20:46.234Z,14.00
2023-03-24T09:23:13.678Z,14.10
2023-03-24T09:25:40.931Z,13.90
2023-03-24T09:28:08.838Z,13.90
2023-03-24T09:30:36.450Z,13.90
2023-03-24T09:33:04.228Z,13.80
2023-03-24T09:35:31.278Z,13.80
2023-03-24T09:37:58.354Z,13.70
2023-03-24T09:40:28.881Z,13.60
2023-03-24T09:43:06.969Z,13.60
2023-03-24T09:45:38.896Z,13.80
2023-03-24T09:48:28.852Z,14.10
2023-03-24T09:51:04.156Z,14.50
2023-03-24T09:53:46.168Z,14.70
2023-03-24T09:56:17.108Z,14.90
2023-03-24T09:58:49.909Z,15.10
2023-03-24T10:01:17.773Z,15.10
2023-03-24T10:03:46.228Z,15.20
2023-03-24T10:06:36.563Z,15.20
2023-03-24T10:09:29.060Z,15.00
2023-03-24T10:12:00.644Z,14.90
2023-03-24T10:14:33.791Z,14.90
2023-03-24T10:17:09.601Z,14.80
2023-03-24T10:19:59.337Z,14.60
2023-03-24T10:22:40.682Z,14.60
2023-03-24T10:25:25.210Z,14.70
2023-03-24T10:27:59.625Z,14.80
2023-03-24T10:30:33.667Z,14.90
2023-03-24T10:33:00.913Z,14.90
2023-03-24T10:35:29.612Z,14.90
2023-03-24T10:38:00.036Z,14.80
2023-03-24T10:40:33.629Z,14.70
2023-03-24T10:43:07.312Z,14.70
2023-03-24T10:45:39.630Z,14.60
2023-03-24T10:48:09.737Z,14.60
2023-03-24T10:50:45.241Z,14.60
2023-03-24T10:53:20.566Z,14.70
2023-03-24T10:55:48.329Z,14.60
2023-03-24T10:58:28.200Z,14.60
2023-03-24T11:00:57.146Z,14.60
2023-03-24T11:03:31.504Z,14.50
2023-03-24T11:06:04.447Z,14.60
2023-03-24T11:08:38.856Z,14.70
2023-03-24T11:11:31.748Z,14.90
2023-03-24T11:14:04.305Z,15.10
2023-03-24T11:16:36.426Z,15.10
2023-03-24T11:19:06.584Z,15.00
2023-03-24T11:21:36.994Z,15.10
2023-03-24T11:24:14.763Z,15.00
2023-03-24T11:26:53.700Z,15.00
2023-03-24T11:29:24.294Z,15.00
2023-03-24T11:31:55.181Z,15.10
2023-03-24T11:34:38.677Z,15.00
2023-03-24T11:37:13.460Z,15.00
2023-03-24T11:39:40.651Z,14.80
2023-03-24T11:42:10.680Z,14.80
2023-03-24T11:44:46.850Z,15.10
2023-03-24T11:47:32.260Z,15.40
2023-03-24T11:50:11.919Z,15.70
2023-03-24T11:52:54.943Z,15.80
2023-03-24T11:55:29.050Z,15.90
2023-03-24T11:58:12.574Z,15.90
2023-03-24T12:00:53.335Z,15.90
2023-03-24T12:03:33.183Z,15.70
2023-03-24T12:06:13.860Z,15.60
2023-03-24T12:08:53.878Z,15.80
2023-03-24T12:11:48.415Z,15.80
2023-03-24T12:14:25.747Z,15.80
2023-03-24T12:17:16.772Z,15.90
2023-03-24T12:20:08.131Z,15.90
2023-03-24T12:23:17.933Z,16.00
2023-03-24T12:26:07.090Z,16.00
2023-03-24T12:28:57.122Z,16.00
2023-03-24T12:31:42.332Z,16.20
2023-03-24T12:34:36.842Z,16.60
2023-03-24T12:37:32.826Z,16.90
2023-03-24T12:40:10.271Z,17.10
2023-03-24T12:43:02.289Z,16.80
2023-03-24T12:46:03.523Z,16.60
2023-03-24T12:48:39.433Z,16.40
2023-03-24T12:51:26.547Z,16.30
2023-03-24T12:54:11.024Z,16.30
2023-03-24T12:56:49.095Z,16.40
2023-03-24T12:59:31.962Z,16.60
2023-03-24T13:02:35.513Z,16.60
2023-03-24T13:05:19.090Z,16.80
2023-03-24T13:07:47.709Z,17.00
2023-03-24T13:10:21.809Z,16.80
2023-03-24T13:12:54.845Z,16.80
2023-03-24T13:15:28.854Z,16.60
2023-03-24T13:18:11.193Z,16.40
2023-03-24T13:20:53.246Z,16.40
2023-03-24T13:23:38.734Z,16.10
2023-03-24T13:26:34.458Z,15.80
2023-03-24T13:29:13.458Z,15.40
2023-03-24T13:32:01.607Z,15.00
2023-03-24T13:34:38.240Z,14.30
2023-03-24T13:37:06.610Z,13.70
2023-03-24T13:39:36.642Z,13.10
2023-03-24T13:42:03.979Z,12.80
2023-03-24T13:44:38.613Z,12.50
2023-03-24T13:47:13.487Z,12.10
2023-03-24T13:49:43.407Z,12.10
2023-03-24T13:52:33.674Z,12.10
2023-03-24T13:55:08.338Z,12.20
2023-03-24T13:57:40.493Z,12.30
2023-03-24T14:00:12.190Z,12.50
2023-03-24T14:03:08.447Z,12.50
2023-03-24T14:05:59.784Z,12.50
2023-03-24T14:08:55.398Z,12.80
2023-03-24T14:11:34.511Z,12.80
2023-03-24T14:14:21.243Z,12.90
2023-03-24T14:17:03.596Z,12.80
2023-03-24T14:19:41.922Z,12.70
2023-03-24T14:22:33.188Z,12.90
2023-03-24T14:25:17.968Z,12.90
2023-03-24T14:27:47.634Z,13.00
2023-03-24T14:30:32.240Z,13.10
2023-03-24T14:33:02.230Z,13.20
2023-03-24T14:35:46.687Z,13.20
2023-03-24T14:38:19.587Z,13.30
2023-03-24T14:40:49.691Z,13.40
2023-03-24T14:43:49.810Z,13.50
2023-03-24T14:46:19.941Z,13.60
2023-03-24T14:49:27.081Z,13.60
2023-03-24T14:52:24.886Z,13.70
2023-03-24T14:55:01.491Z,13.70
2023-03-24T14:57:56.662Z,13.60
2023-03-24T15:00:31.853Z,13.60
2023-03-24T15:03:03.483Z,13.60
2023-03-24T15:05:31.743Z,13.50
2023-03-24T15:08:21.492Z,13.50
2023-03-24T15:11:04.250Z,13.30
2023-03-24T15:13:51.386Z,13.20
2023-03-24T15:16:22.744Z,13.20
2023-03-24T15:19:01.783Z,13.20
2023-03-24T15:21:41.176Z,13.20
2023-03-24T15:24:30.892Z,13.20
2023-03-24T15:27:07.106Z,13.20
2023-03-24T15:29:39.762Z,13.30
2023-03-24T15:32:07.512Z,13.20
2023-03-24T15:34:34.600Z,13.20
2023-03-24T15:37:03.919Z,13.30
2023-03-24T15:39:41.017Z,13.10
2023-03-24T15:42:14.752Z,13.10
2023-03-24T15:44:42.051Z,13.00
2023-03-24T15:47:38.085Z,13.00
2023-03-24T15:50:06.273Z,13.00
2023-03-24T15:52:37.651Z,13.00
2023-03-24T15:55:28.789Z,13.10
2023-03-24T15:57:58.938Z,13.00
2023-03-24T16:00:31.155Z,13.00
2023-03-24T16:03:02.313Z,13.00
2023-03-24T16:05:32.273Z,12.90
2023-03-24T16:08:03.676Z,13.00
2023-03-24T16:10:40.631Z,13.00
2023-03-24T16:13:19.408Z,13.00
2023-03-24T16:15:59.357Z,13.00
2023-03-24T16:18:33.691Z,13.10
2023-03-24T16:21:02.608Z,13.10
2023-03-24T16:23:30.981Z,13.10
2023-03-24T16:25:59.557Z,13.10
2023-03-24T16:28:27.729Z,13.30
2023-03-24T16:31:03.081Z,13.40
2023-03-24T16:33:31.483Z,13.40
2023-03-24T16:36:00.068Z,13.50
2023-03-24T16:38:28.925Z,13.50
2023-03-24T16:40:57.759Z,13.50
2023-03-24T16:46:26.462Z,13.30
2023-03-24T16:48:54.726Z,13.30
2023-03-24T16:51:22.273Z,13.10
2023-03-24T16:53:49.690Z,13.10
2023-03-24T16:56:19.335Z,13.00
2023-03-24T16:58:48.165Z,12.80
2023-03-24T17:04:19.884Z,12.70
2023-03-24T17:06:50.864Z,12.70
2023-03-24T17:09:17.904Z,12.60
2023-03-24T17:11:48.890Z,12.50
2023-03-24T17:14:17.144Z,12.30
2023-03-24T17:16:45.560Z,12.40
2023-03-24T17:19:21.586Z,12.40
2023-03-24T17:22:05.087Z,12.30
2023-03-24T17:24:36.278Z,12.10
2023-03-24T17:27:03.778Z,12.10
2023-03-24T17:29:31.842Z,12.10
2023-03-24T17:31:58.742Z,12.00
2023-03-24T17:34:25.975Z,11.90
2023-03-24T17:36:53.020Z,11.90
2023-03-24T17:39:21.186Z,11.90
2023-03-24T17:41:48.407Z,11.80
2023-03-24T17:44:15.501Z,11.70
2023-03-24T17:46:42.606Z,11.60
2023-03-24T17:49:09.523Z,11.60
2023-03-24T17:51:36.628Z,11.60
2023-03-24T17:54:04.313Z,11.60
2023-03-24T17:56:32.092Z,11.50
2023-03-24T17:58:59.199Z,11.40
2023-03-24T18:01:29.429Z,11.40
2023-03-24T18:03:57.378Z,11.40
2023-03-24T18:06:24.825Z,11.30
2023-03-24T18:08:52.173Z,11.20
2023-03-24T18:11:20.111Z,11.10
2023-03-24T18:13:47.110Z,11.00
2023-03-24T18:16:21.280Z,10.90
2023-03-24T18:18:50.118Z,10.80
2023-03-24T18:21:17.681Z,10.80
2023-03-24T18:23:46.553Z,10.80
2023-03-24T18:26:15.046Z,10.80
2023-03-24T18:28:43.010Z,10.70
2023-03-24T18:31:19.003Z,10.70
2023-03-24T18:33:49.358Z,10.80
2023-03-24T18:36:21.324Z,10.70
2023-03-24T18:38:49.182Z,10.80
2023-03-24T18:41:18.382Z,10.80
2023-03-24T18:43:48.111Z,10.80
2023-03-24T18:46:15.376Z,10.80
2023-03-24T18:48:42.747Z,10.80
2023-03-24T18:51:11.147Z,10.80
2023-03-24T18:53:38.526Z,10.80
2023-03-24T18:56:06.684Z,10.80
2023-03-24T18:58:34.187Z,10.80
2023-03-24T19:01:07.131Z,10.80
2023-03-24T19:03:35.778Z,10.80
2023-03-24T19:06:06.995Z,10.80
2023-03-24T19:08:35.923Z,10.80
2023-03-24T19:11:03.455Z,10.70
2023-03-24T19:13:30.896Z,10.80
2023-03-24T19:15:57.841Z,10.80
2023-03-24T19:18:25.712Z,10.80
2023-03-24T19:20:57.615Z,10.90
2023-03-24T19:23:25.773Z,10.90
2023-03-24T19:25:55.422Z,10.90
2023-03-24T19:28:27.276Z,10.90
2023-03-24T19:30:54.268Z,11.00
2023-03-24T19:33:21.486Z,11.00
2023-03-24T19:35:50.510Z,10.90
2023-03-24T19:38:19.330Z,11.00
2023-03-24T19:40:46.496Z,11.00
2023-03-24T19:43:13.515Z,11.00
2023-03-24T19:45:43.119Z,11.00
2023-03-24T19:48:10.923Z,10.90
2023-03-24T19:50:38.110Z,10.90
2023-03-24T19:53:05.161Z,11.00
2023-03-24T19:55:32.246Z,10.90
2023-03-24T19:57:59.658Z,10.90
2023-03-24T20:00:26.964Z,10.90
2023-03-24T20:02:54.011Z,10.90
2023-03-24T20:05:21.376Z,10.90
2023-03-24T20:07:48.672Z,10.80
2023-03-24T20:10:15.868Z,10.70
2023-03-24T20:12:42.882Z,10.70
2023-03-24T20:15:10.953Z,10.80
2023-03-24T20:17:39.447Z,10.70
2023-03-24T20:20:10.363Z,10.80
2023-03-24T20:22:42.292Z,10.70
2023-03-24T20:25:10.745Z,10.80
2023-03-24T20:27:38.056Z,10.70
2023-03-24T20:30:06.647Z,10.70
2023-03-24T20:32:34.119Z,10.60
2023-03-24T20:35:01.260Z,10.60
2023-03-24T20:37:30.525Z,10.50
2023-03-24T20:39:57.551Z,10.50
2023-03-24T20:42:24.568Z,10.50
2023-03-24T20:44:51.608Z,10.40
2023-03-24T20:47:19.788Z,10.40
2023-03-24T20:49:46.849Z,10.40
2023-03-24T20:52:14.468Z,10.30
2023-03-24T20:54:42.000Z,10.30
2023-03-24T20:57:09.926Z,10.30
2023-03-24T20:59:37.738Z,10.30
2023-03-24T21:02:06.355Z,10.30
2023-03-24T21:04:34.091Z,10.20
2023-03-24T21:07:01.213Z,10.20
2023-03-24T21:09:28.538Z,10.10
2023-03-24T21:11:55.515Z,10.10
2023-03-24T21:14:22.460Z,10.20
2023-03-24T21:16:49.560Z,10.20
2023-03-24T21:19:16.698Z,10.10
2023-03-24T21:21:44.668Z,10.10
2023-03-24T21:24:13.278Z,10.10
2023-03-24T21:26:40.272Z,10.10
2023-03-24T21:29:08.296Z,10.10
2023-03-24T21:31:35.369Z,10.00
2023-03-24T21:34:02.447Z,10.00
2023-03-24T21:36:30.752Z,10.00
2023-03-24T21:38:58.514Z,10.00
2023-03-24T21:41:25.501Z,10.00
2023-03-24T21:43:54.357Z,10.00
2023-03-24T21:46:22.555Z,10.00
2023-03-24T21:48:56.056Z,9.90
2023-03-24T21:51:25.992Z,9.90
2023-03-24T21:53:59.569Z,9.90
2023-03-24T21:56:26.885Z,9.90
2023-03-24T21:58:55.053Z,9.80
2023-03-24T22:01:22.602Z,9.90
2023-03-24T22:03:50.886Z,9.80
2023-03-24T22:06:18.277Z,9.80
2023-03-24T22:08:48.854Z,9.80
2023-03-24T22:11:18.522Z,9.80
2023-03-24T22:13:46.427Z,9.90
2023-03-24T22:16:14.050Z,9.90
2023-03-24T22:18:41.020Z,10.00
2023-03-24T22:21:09.818Z,10.00
2023-03-24T22:23:39.314Z,10.00
2023-03-24T22:26:12.125Z,10.00
2023-03-24T22:28:39.309Z,10.10
2023-03-24T22:31:12.382Z,10.10
2023-03-24T22:33:39.806Z,10.10
2023-03-24T22:36:07.314Z,10.10
2023-03-24T22:38:35.079Z,10.10
2023-03-24T22:41:07.862Z,10.10
2023-03-24T22:43:36.287Z,10.10
2023-03-24T22:46:05.216Z,10.10
2023-03-24T22:48:31.956Z,10.10
2023-03-24T22:50:58.727Z,10.10
2023-03-24T22:53:25.528Z,10.10
2023-03-24T22:55:52.780Z,10.10
2023-03-24T22:58:20.556Z,10.10
2023-03-24T23:00:48.990Z,10.10
2023-03-24T23:03:16.113Z,10.10
2023-03-24T23:05:46.274Z,10.00
2023-03-24T23:08:15.254Z,10.00
2023-03-24T23:10:44.226Z,10.00
2023-03-24T23:13:12.046Z,9.90
2023-03-24T23:15:42.702Z,9.90
2023-03-24T23:18:10.339Z,9.90
2023-03-24T23:20:37.565Z,9.90
2023-03-24T23:23:06.538Z,9.90
2023-03-24T23:25:38.967Z,9.80
2023-03-24T23:28:06.612Z,9.80
2023-03-24T23:30:33.344Z,9.80
2023-03-24T23:33:00.198Z,9.80
2023-03-24T23:35:26.897Z,9.80
2023-03-24T23:37:53.697Z,9.80
2023-03-24T23:40:20.510Z,9.80
2023-03-24T23:42:48.557Z,9.70
2023-03-24T23:45:20.091Z,9.70
2023-03-24T23:47:51.811Z,9.80
2023-03-24T23:50:19.684Z,9.80
2023-03-24T23:52:46.902Z,9.80
2023-03-24T23:55:16.022Z,9.80
2023-03-24T23:57:43.249Z,9.80
